sensor_id;sensor_type;location;lat;lon;timestamp;P1;durP1;ratioP1;P2;durP2;ratioP2
36653;SDS011;22650;49.350;20.898;2023-02-15T00:00:13;68.50;;;28.83;;
36653;SDS011;22650;49.350;20.898;2023-02-15T00:02:47;65.85;;;24.88;;
36653;SDS011;22650;49.350;20.898;2023-02-15T00:05:21;65.20;;;29.70;;
36653;SDS011;22650;49.350;20.898;2023-02-15T00:07:56;66.93;;;28.10;;
36653;SDS011;22650;49.350;20.898;2023-02-15T00:10:29;63.83;;;26.35;;
36653;SDS011;22650;49.350;20.898;2023-02-15T00:13:03;72.28;;;28.55;;
36653;SDS011;22650;49.350;20.898;2023-02-15T00:15:36;60.50;;;24.67;;
36653;SDS011;22650;49.350;20.898;2023-02-15T00:18:10;72.00;;;29.67;;
36653;SDS011;22650;49.350;20.898;2023-02-15T00:20:43;73.35;;;27.85;;
36653;SDS011;22650;49.350;20.898;2023-02-15T00:23:18;58.63;;;24.77;;
36653;SDS011;22650;49.350;20.898;2023-02-15T00:25:52;72.70;;;29.63;;
36653;SDS011;22650;49.350;20.898;2023-02-15T00:28:35;50.28;;;23.67;;
36653;SDS011;22650;49.350;20.898;2023-02-15T00:31:09;56.25;;;24.58;;
36653;SDS011;22650;49.350;20.898;2023-02-15T00:33:44;62.45;;;26.10;;
36653;SDS011;22650;49.350;20.898;2023-02-15T00:36:17;67.38;;;28.70;;
36653;SDS011;22650;49.350;20.898;2023-02-15T00:38:54;66.70;;;28.80;;
36653;SDS011;22650;49.350;20.898;2023-02-15T00:41:27;57.58;;;26.27;;
36653;SDS011;22650;49.350;20.898;2023-02-15T00:44:01;52.63;;;23.65;;
36653;SDS011;22650;49.350;20.898;2023-02-15T00:46:36;65.70;;;25.70;;
36653;SDS011;22650;49.350;20.898;2023-02-15T00:49:13;54.53;;;24.88;;
36653;SDS011;22650;49.350;20.898;2023-02-15T00:51:46;63.50;;;26.80;;
36653;SDS011;22650;49.350;20.898;2023-02-15T00:54:21;56.08;;;23.45;;
36653;SDS011;22650;49.350;20.898;2023-02-15T00:56:55;63.50;;;26.00;;
36653;SDS011;22650;49.350;20.898;2023-02-15T00:59:28;59.13;;;24.63;;
36653;SDS011;22650;49.350;20.898;2023-02-15T01:02:01;50.38;;;22.50;;
36653;SDS011;22650;49.350;20.898;2023-02-15T01:04:35;47.05;;;21.98;;
36653;SDS011;22650;49.350;20.898;2023-02-15T01:07:09;55.03;;;24.30;;
36653;SDS011;22650;49.350;20.898;2023-02-15T01:09:43;58.83;;;24.48;;
36653;SDS011;22650;49.350;20.898;2023-02-15T01:12:17;47.25;;;21.67;;
36653;SDS011;22650;49.350;20.898;2023-02-15T01:14:51;54.75;;;22.55;;
36653;SDS011;22650;49.350;20.898;2023-02-15T01:17:25;47.47;;;20.05;;
36653;SDS011;22650;49.350;20.898;2023-02-15T01:19:59;56.22;;;22.40;;
36653;SDS011;22650;49.350;20.898;2023-02-15T01:22:33;52.88;;;22.85;;
36653;SDS011;22650;49.350;20.898;2023-02-15T01:25:08;44.97;;;20.35;;
36653;SDS011;22650;49.350;20.898;2023-02-15T01:27:41;49.00;;;20.83;;
36653;SDS011;22650;49.350;20.898;2023-02-15T01:30:17;53.22;;;23.42;;
36653;SDS011;22650;49.350;20.898;2023-02-15T01:32:51;48.80;;;20.73;;
36653;SDS011;22650;49.350;20.898;2023-02-15T01:35:25;54.30;;;22.23;;
36653;SDS011;22650;49.350;20.898;2023-02-15T01:37:58;60.28;;;25.48;;
36653;SDS011;22650;49.350;20.898;2023-02-15T01:40:33;59.78;;;24.08;;
36653;SDS011;22650;49.350;20.898;2023-02-15T01:43:09;56.70;;;23.38;;
36653;SDS011;22650;49.350;20.898;2023-02-15T01:45:44;68.88;;;25.67;;
36653;SDS011;22650;49.350;20.898;2023-02-15T01:48:22;59.60;;;22.88;;
36653;SDS011;22650;49.350;20.898;2023-02-15T01:51:00;58.35;;;23.02;;
36653;SDS011;22650;49.350;20.898;2023-02-15T01:53:35;67.60;;;26.92;;
36653;SDS011;22650;49.350;20.898;2023-02-15T01:56:16;48.55;;;21.25;;
36653;SDS011;22650;49.350;20.898;2023-02-15T01:58:54;52.40;;;20.88;;
36653;SDS011;22650;49.350;20.898;2023-02-15T02:01:30;59.22;;;22.63;;
36653;SDS011;22650;49.350;20.898;2023-02-15T02:04:05;62.17;;;24.42;;
36653;SDS011;22650;49.350;20.898;2023-02-15T02:06:44;61.53;;;23.85;;
36653;SDS011;22650;49.350;20.898;2023-02-15T02:09:20;46.83;;;20.38;;
36653;SDS011;22650;49.350;20.898;2023-02-15T02:11:55;61.30;;;24.17;;
36653;SDS011;22650;49.350;20.898;2023-02-15T02:14:29;58.67;;;25.10;;
36653;SDS011;22650;49.350;20.898;2023-02-15T02:17:04;55.13;;;23.98;;
36653;SDS011;22650;49.350;20.898;2023-02-15T02:19:50;68.57;;;26.92;;
36653;SDS011;22650;49.350;20.898;2023-02-15T02:22:54;53.08;;;24.27;;
36653;SDS011;22650;49.350;20.898;2023-02-15T02:29:03;55.22;;;21.27;;
36653;SDS011;22650;49.350;20.898;2023-02-15T02:32:06;52.03;;;21.55;;
36653;SDS011;22650;49.350;20.898;2023-02-15T02:34:56;61.75;;;23.08;;
36653;SDS011;22650;49.350;20.898;2023-02-15T02:37:35;50.08;;;21.92;;
36653;SDS011;22650;49.350;20.898;2023-02-15T02:40:19;35.30;;;15.45;;
36653;SDS011;22650;49.350;20.898;2023-02-15T02:42:59;55.92;;;23.38;;
36653;SDS011;22650;49.350;20.898;2023-02-15T02:45:38;60.08;;;23.42;;
36653;SDS011;22650;49.350;20.898;2023-02-15T02:48:17;54.90;;;21.88;;
36653;SDS011;22650;49.350;20.898;2023-02-15T02:50:56;52.72;;;20.17;;
36653;SDS011;22650;49.350;20.898;2023-02-15T02:53:30;60.17;;;24.48;;
36653;SDS011;22650;49.350;20.898;2023-02-15T02:56:06;49.80;;;21.23;;
36653;SDS011;22650;49.350;20.898;2023-02-15T02:58:46;53.00;;;21.60;;
36653;SDS011;22650;49.350;20.898;2023-02-15T03:01:24;51.67;;;21.17;;
36653;SDS011;22650;49.350;20.898;2023-02-15T03:04:03;52.85;;;23.05;;
36653;SDS011;22650;49.350;20.898;2023-02-15T03:06:44;47.20;;;21.63;;
36653;SDS011;22650;49.350;20.898;2023-02-15T03:09:23;55.25;;;23.65;;
36653;SDS011;22650;49.350;20.898;2023-02-15T03:12:06;41.33;;;19.63;;
36653;SDS011;22650;49.350;20.898;2023-02-15T03:14:44;48.13;;;18.88;;
36653;SDS011;22650;49.350;20.898;2023-02-15T03:17:21;53.17;;;21.90;;
36653;SDS011;22650;49.350;20.898;2023-02-15T03:19:59;41.75;;;18.50;;
36653;SDS011;22650;49.350;20.898;2023-02-15T03:22:39;40.22;;;17.30;;
36653;SDS011;22650;49.350;20.898;2023-02-15T03:25:18;43.45;;;18.45;;
36653;SDS011;22650;49.350;20.898;2023-02-15T03:27:55;39.47;;;17.45;;
36653;SDS011;22650;49.350;20.898;2023-02-15T03:30:33;46.50;;;21.05;;
36653;SDS011;22650;49.350;20.898;2023-02-15T03:33:08;39.55;;;18.75;;
36653;SDS011;22650;49.350;20.898;2023-02-15T03:35:46;43.25;;;19.60;;
36653;SDS011;22650;49.350;20.898;2023-02-15T03:38:28;42.60;;;17.90;;
36653;SDS011;22650;49.350;20.898;2023-02-15T03:41:06;44.47;;;18.85;;
36653;SDS011;22650;49.350;20.898;2023-02-15T03:43:45;48.50;;;17.25;;
36653;SDS011;22650;49.350;20.898;2023-02-15T03:46:24;41.58;;;16.80;;
36653;SDS011;22650;49.350;20.898;2023-02-15T03:49:02;41.25;;;17.65;;
36653;SDS011;22650;49.350;20.898;2023-02-15T03:51:40;39.25;;;17.15;;
36653;SDS011;22650;49.350;20.898;2023-02-15T03:54:20;37.75;;;16.60;;
36653;SDS011;22650;49.350;20.898;2023-02-15T03:57:16;48.03;;;16.40;;
36653;SDS011;22650;49.350;20.898;2023-02-15T04:00:21;42.22;;;18.20;;
36653;SDS011;22650;49.350;20.898;2023-02-15T04:03:20;43.08;;;17.55;;
36653;SDS011;22650;49.350;20.898;2023-02-15T04:05:58;43.10;;;17.48;;
36653;SDS011;22650;49.350;20.898;2023-02-15T04:08:34;47.38;;;18.33;;
36653;SDS011;22650;49.350;20.898;2023-02-15T04:11:27;46.60;;;17.60;;
36653;SDS011;22650;49.350;20.898;2023-02-15T04:14:00;34.20;;;17.45;;
36653;SDS011;22650;49.350;20.898;2023-02-15T04:16:55;40.28;;;17.15;;
36653;SDS011;22650;49.350;20.898;2023-02-15T04:22:18;38.13;;;15.50;;
36653;SDS011;22650;49.350;20.898;2023-02-15T04:25:09;34.72;;;15.00;;
36653;SDS011;22650;49.350;20.898;2023-02-15T04:27:47;41.17;;;16.40;;
36653;SDS011;22650;49.350;20.898;2023-02-15T04:30:22;44.13;;;17.85;;
36653;SDS011;22650;49.350;20.898;2023-02-15T04:32:58;46.45;;;18.98;;
36653;SDS011;22650;49.350;20.898;2023-02-15T04:35:31;36.53;;;16.17;;
36653;SDS011;22650;49.350;20.898;2023-02-15T04:38:05;37.15;;;16.58;;
36653;SDS011;22650;49.350;20.898;2023-02-15T04:40:38;47.40;;;19.13;;
36653;SDS011;22650;49.350;20.898;2023-02-15T04:43:13;37.88;;;17.10;;
36653;SDS011;22650;49.350;20.898;2023-02-15T04:45:47;39.22;;;17.77;;
36653;SDS011;22650;49.350;20.898;2023-02-15T04:48:22;37.17;;;15.07;;
36653;SDS011;22650;49.350;20.898;2023-02-15T04:50:55;41.97;;;18.13;;
36653;SDS011;22650;49.350;20.898;2023-02-15T04:53:30;41.58;;;18.02;;
36653;SDS011;22650;49.350;20.898;2023-02-15T04:56:03;38.40;;;16.90;;
36653;SDS011;22650;49.350;20.898;2023-02-15T04:58:38;16.83;;;8.27;;
36653;SDS011;22650;49.350;20.898;2023-02-15T05:01:12;20.33;;;7.75;;
36653;SDS011;22650;49.350;20.898;2023-02-15T05:03:46;21.58;;;9.43;;
36653;SDS011;22650;49.350;20.898;2023-02-15T05:06:20;20.42;;;7.97;;
36653;SDS011;22650;49.350;20.898;2023-02-15T05:08:54;17.70;;;7.25;;
36653;SDS011;22650;49.350;20.898;2023-02-15T05:11:27;23.65;;;9.75;;
36653;SDS011;22650;49.350;20.898;2023-02-15T05:14:02;17.55;;;8.35;;
36653;SDS011;22650;49.350;20.898;2023-02-15T05:16:36;17.52;;;8.15;;
36653;SDS011;22650;49.350;20.898;2023-02-15T05:19:09;18.63;;;7.75;;
36653;SDS011;22650;49.350;20.898;2023-02-15T05:21:43;17.83;;;7.85;;
36653;SDS011;22650;49.350;20.898;2023-02-15T05:24:17;15.00;;;7.03;;
36653;SDS011;22650;49.350;20.898;2023-02-15T05:27:07;19.75;;;8.77;;
36653;SDS011;22650;49.350;20.898;2023-02-15T05:30:02;22.23;;;9.73;;
36653;SDS011;22650;49.350;20.898;2023-02-15T05:32:37;18.30;;;8.23;;
36653;SDS011;22650;49.350;20.898;2023-02-15T05:35:11;16.88;;;7.80;;
36653;SDS011;22650;49.350;20.898;2023-02-15T05:37:46;21.35;;;6.68;;
36653;SDS011;22650;49.350;20.898;2023-02-15T05:40:20;16.08;;;8.27;;
36653;SDS011;22650;49.350;20.898;2023-02-15T05:42:53;17.58;;;8.27;;
36653;SDS011;22650;49.350;20.898;2023-02-15T05:45:29;33.72;;;13.73;;
36653;SDS011;22650;49.350;20.898;2023-02-15T05:48:03;19.17;;;8.57;;
36653;SDS011;22650;49.350;20.898;2023-02-15T05:50:37;20.95;;;9.18;;
36653;SDS011;22650;49.350;20.898;2023-02-15T05:53:11;24.67;;;9.90;;
36653;SDS011;22650;49.350;20.898;2023-02-15T05:55:44;23.88;;;9.50;;
36653;SDS011;22650;49.350;20.898;2023-02-15T05:58:18;11.25;;;7.18;;
36653;SDS011;22650;49.350;20.898;2023-02-15T06:00:53;17.02;;;8.00;;
36653;SDS011;22650;49.350;20.898;2023-02-15T06:03:26;22.30;;;9.73;;
36653;SDS011;22650;49.350;20.898;2023-02-15T06:06:00;23.02;;;9.43;;
36653;SDS011;22650;49.350;20.898;2023-02-15T06:08:36;20.90;;;8.60;;
36653;SDS011;22650;49.350;20.898;2023-02-15T06:11:10;20.25;;;9.43;;
36653;SDS011;22650;49.350;20.898;2023-02-15T06:13:44;16.73;;;6.75;;
36653;SDS011;22650;49.350;20.898;2023-02-15T06:16:19;16.20;;;8.18;;
36653;SDS011;22650;49.350;20.898;2023-02-15T06:18:53;18.02;;;8.38;;
36653;SDS011;22650;49.350;20.898;2023-02-15T06:21:26;15.30;;;7.10;;
36653;SDS011;22650;49.350;20.898;2023-02-15T06:24:00;19.92;;;8.20;;
36653;SDS011;22650;49.350;20.898;2023-02-15T06:26:33;21.52;;;8.45;;
36653;SDS011;22650;49.350;20.898;2023-02-15T06:29:07;19.42;;;7.35;;
36653;SDS011;22650;49.350;20.898;2023-02-15T06:31:42;17.75;;;8.70;;
36653;SDS011;22650;49.350;20.898;2023-02-15T06:34:16;16.48;;;8.30;;
36653;SDS011;22650;49.350;20.898;2023-02-15T06:36:49;19.38;;;8.35;;
36653;SDS011;22650;49.350;20.898;2023-02-15T06:39:23;18.63;;;8.95;;
36653;SDS011;22650;49.350;20.898;2023-02-15T06:41:57;18.90;;;8.00;;
36653;SDS011;22650;49.350;20.898;2023-02-15T06:44:31;18.63;;;7.70;;
36653;SDS011;22650;49.350;20.898;2023-02-15T06:47:05;23.35;;;10.07;;
36653;SDS011;22650;49.350;20.898;2023-02-15T06:49:39;21.25;;;8.90;;
36653;SDS011;22650;49.350;20.898;2023-02-15T06:52:13;19.30;;;8.18;;
36653;SDS011;22650;49.350;20.898;2023-02-15T06:54:50;21.70;;;8.77;;
36653;SDS011;22650;49.350;20.898;2023-02-15T06:57:24;21.05;;;9.25;;
36653;SDS011;22650;49.350;20.898;2023-02-15T06:59:58;18.08;;;8.40;;
36653;SDS011;22650;49.350;20.898;2023-02-15T07:02:33;19.23;;;8.40;;
36653;SDS011;22650;49.350;20.898;2023-02-15T07:05:07;17.83;;;8.68;;
36653;SDS011;22650;49.350;20.898;2023-02-15T07:07:40;19.77;;;7.95;;
36653;SDS011;22650;49.350;20.898;2023-02-15T07:10:14;15.52;;;7.15;;
36653;SDS011;22650;49.350;20.898;2023-02-15T07:12:48;22.60;;;9.32;;
36653;SDS011;22650;49.350;20.898;2023-02-15T07:17:56;23.13;;;9.40;;
36653;SDS011;22650;49.350;20.898;2023-02-15T07:20:30;15.20;;;6.75;;
36653;SDS011;22650;49.350;20.898;2023-02-15T07:23:07;15.82;;;8.18;;
36653;SDS011;22650;49.350;20.898;2023-02-15T07:25:41;24.33;;;10.07;;
36653;SDS011;22650;49.350;20.898;2023-02-15T07:28:15;18.33;;;8.32;;
36653;SDS011;22650;49.350;20.898;2023-02-15T07:30:48;19.33;;;8.13;;
36653;SDS011;22650;49.350;20.898;2023-02-15T07:33:23;18.02;;;8.27;;
36653;SDS011;22650;49.350;20.898;2023-02-15T07:35:59;16.55;;;8.30;;
36653;SDS011;22650;49.350;20.898;2023-02-15T07:38:35;20.98;;;7.68;;
36653;SDS011;22650;49.350;20.898;2023-02-15T07:41:11;18.98;;;7.85;;
36653;SDS011;22650;49.350;20.898;2023-02-15T07:43:45;19.67;;;8.27;;
36653;SDS011;22650;49.350;20.898;2023-02-15T07:46:19;18.92;;;8.68;;
36653;SDS011;22650;49.350;20.898;2023-02-15T07:48:54;15.50;;;7.85;;
36653;SDS011;22650;49.350;20.898;2023-02-15T07:51:28;16.23;;;7.97;;
36653;SDS011;22650;49.350;20.898;2023-02-15T07:54:02;21.92;;;7.22;;
36653;SDS011;22650;49.350;20.898;2023-02-15T07:56:35;21.25;;;8.20;;
36653;SDS011;22650;49.350;20.898;2023-02-15T07:59:09;15.77;;;7.75;;
36653;SDS011;22650;49.350;20.898;2023-02-15T08:01:42;19.40;;;7.35;;
36653;SDS011;22650;49.350;20.898;2023-02-15T08:04:17;18.92;;;7.88;;
36653;SDS011;22650;49.350;20.898;2023-02-15T08:06:52;20.88;;;8.60;;
36653;SDS011;22650;49.350;20.898;2023-02-15T08:09:26;19.30;;;6.60;;
36653;SDS011;22650;49.350;20.898;2023-02-15T08:12:00;18.45;;;8.77;;
36653;SDS011;22650;49.350;20.898;2023-02-15T08:14:33;13.88;;;6.60;;
36653;SDS011;22650;49.350;20.898;2023-02-15T08:17:07;23.08;;;7.57;;
36653;SDS011;22650;49.350;20.898;2023-02-15T08:19:42;16.45;;;7.38;;
36653;SDS011;22650;49.350;20.898;2023-02-15T08:22:15;15.27;;;7.38;;
36653;SDS011;22650;49.350;20.898;2023-02-15T08:24:49;19.30;;;7.68;;
36653;SDS011;22650;49.350;20.898;2023-02-15T08:27:22;19.20;;;8.52;;
36653;SDS011;22650;49.350;20.898;2023-02-15T08:29:58;18.83;;;7.57;;
36653;SDS011;22650;49.350;20.898;2023-02-15T08:32:31;18.42;;;7.78;;
36653;SDS011;22650;49.350;20.898;2023-02-15T08:35:06;22.38;;;8.50;;
36653;SDS011;22650;49.350;20.898;2023-02-15T08:37:41;22.30;;;8.63;;
36653;SDS011;22650;49.350;20.898;2023-02-15T08:40:15;18.00;;;7.82;;
36653;SDS011;22650;49.350;20.898;2023-02-15T08:42:48;18.98;;;8.82;;
36653;SDS011;22650;49.350;20.898;2023-02-15T08:45:22;20.30;;;8.45;;
36653;SDS011;22650;49.350;20.898;2023-02-15T08:47:57;18.10;;;7.38;;
36653;SDS011;22650;49.350;20.898;2023-02-15T08:50:32;16.15;;;7.82;;
36653;SDS011;22650;49.350;20.898;2023-02-15T08:53:05;18.02;;;8.25;;
36653;SDS011;22650;49.350;20.898;2023-02-15T08:55:39;25.23;;;9.10;;
36653;SDS011;22650;49.350;20.898;2023-02-15T08:58:12;16.60;;;6.80;;
36653;SDS011;22650;49.350;20.898;2023-02-15T09:00:46;17.27;;;7.68;;
36653;SDS011;22650;49.350;20.898;2023-02-15T09:03:20;19.50;;;8.05;;
36653;SDS011;22650;49.350;20.898;2023-02-15T09:05:57;17.15;;;6.88;;
36653;SDS011;22650;49.350;20.898;2023-02-15T09:08:31;19.27;;;7.55;;
36653;SDS011;22650;49.350;20.898;2023-02-15T09:11:06;21.25;;;7.97;;
36653;SDS011;22650;49.350;20.898;2023-02-15T09:13:41;15.45;;;6.50;;
36653;SDS011;22650;49.350;20.898;2023-02-15T09:16:16;14.48;;;7.15;;
36653;SDS011;22650;49.350;20.898;2023-02-15T09:18:50;13.60;;;6.65;;
36653;SDS011;22650;49.350;20.898;2023-02-15T09:21:25;16.60;;;6.63;;
36653;SDS011;22650;49.350;20.898;2023-02-15T09:23:59;18.08;;;7.55;;
36653;SDS011;22650;49.350;20.898;2023-02-15T09:26:35;16.48;;;8.15;;
36653;SDS011;22650;49.350;20.898;2023-02-15T09:29:11;18.23;;;7.68;;
36653;SDS011;22650;49.350;20.898;2023-02-15T09:31:46;16.67;;;7.00;;
36653;SDS011;22650;49.350;20.898;2023-02-15T09:34:21;17.77;;;7.63;;
36653;SDS011;22650;49.350;20.898;2023-02-15T09:36:57;13.90;;;5.95;;
36653;SDS011;22650;49.350;20.898;2023-02-15T09:39:30;15.75;;;7.13;;
36653;SDS011;22650;49.350;20.898;2023-02-15T09:42:21;18.17;;;8.35;;
36653;SDS011;22650;49.350;20.898;2023-02-15T09:45:39;16.27;;;7.60;;
36653;SDS011;22650;49.350;20.898;2023-02-15T09:48:33;17.70;;;8.60;;
36653;SDS011;22650;49.350;20.898;2023-02-15T09:51:17;21.15;;;8.23;;
36653;SDS011;22650;49.350;20.898;2023-02-15T09:54:09;19.85;;;9.40;;
36653;SDS011;22650;49.350;20.898;2023-02-15T09:59:30;21.98;;;9.13;;
36653;SDS011;22650;49.350;20.898;2023-02-15T10:02:14;14.95;;;7.78;;
36653;SDS011;22650;49.350;20.898;2023-02-15T10:05:03;20.55;;;7.85;;
36653;SDS011;22650;49.350;20.898;2023-02-15T10:07:53;19.77;;;7.57;;
36653;SDS011;22650;49.350;20.898;2023-02-15T10:10:45;12.52;;;6.88;;
36653;SDS011;22650;49.350;20.898;2023-02-15T10:13:31;13.73;;;6.05;;
36653;SDS011;22650;49.350;20.898;2023-02-15T10:16:15;15.02;;;7.38;;
36653;SDS011;22650;49.350;20.898;2023-02-15T10:18:59;15.60;;;6.78;;
36653;SDS011;22650;49.350;20.898;2023-02-15T10:21:41;13.27;;;6.78;;
36653;SDS011;22650;49.350;20.898;2023-02-15T10:24:26;20.23;;;7.95;;
36653;SDS011;22650;49.350;20.898;2023-02-15T10:27:18;15.15;;;7.15;;
36653;SDS011;22650;49.350;20.898;2023-02-15T10:29:56;12.05;;;5.65;;
36653;SDS011;22650;49.350;20.898;2023-02-15T10:32:39;13.18;;;5.97;;
36653;SDS011;22650;49.350;20.898;2023-02-15T10:35:20;12.50;;;6.20;;
36653;SDS011;22650;49.350;20.898;2023-02-15T10:38:05;16.23;;;7.13;;
36653;SDS011;22650;49.350;20.898;2023-02-15T10:43:43;20.50;;;7.18;;
36653;SDS011;22650;49.350;20.898;2023-02-15T10:46:34;13.82;;;6.32;;
36653;SDS011;22650;49.350;20.898;2023-02-15T10:49:33;17.65;;;7.55;;
36653;SDS011;22650;49.350;20.898;2023-02-15T10:52:21;15.13;;;6.63;;
36653;SDS011;22650;49.350;20.898;2023-02-15T10:55:06;15.23;;;7.00;;
36653;SDS011;22650;49.350;20.898;2023-02-15T10:57:46;15.43;;;7.18;;
36653;SDS011;22650;49.350;20.898;2023-02-15T11:00:29;14.05;;;6.97;;
36653;SDS011;22650;49.350;20.898;2023-02-15T11:06:09;17.08;;;8.20;;
36653;SDS011;22650;49.350;20.898;2023-02-15T11:08:47;17.02;;;6.25;;
36653;SDS011;22650;49.350;20.898;2023-02-15T11:11:26;15.05;;;7.20;;
36653;SDS011;22650;49.350;20.898;2023-02-15T11:14:03;12.98;;;6.55;;
36653;SDS011;22650;49.350;20.898;2023-02-15T11:16:48;13.98;;;6.38;;
36653;SDS011;22650;49.350;20.898;2023-02-15T11:19:26;13.65;;;7.20;;
36653;SDS011;22650;49.350;20.898;2023-02-15T11:22:05;14.60;;;6.95;;
36653;SDS011;22650;49.350;20.898;2023-02-15T11:24:40;13.82;;;7.03;;
36653;SDS011;22650;49.350;20.898;2023-02-15T11:27:17;16.52;;;7.55;;
36653;SDS011;22650;49.350;20.898;2023-02-15T11:29:55;11.63;;;5.85;;
36653;SDS011;22650;49.350;20.898;2023-02-15T11:32:34;14.90;;;6.65;;
36653;SDS011;22650;49.350;20.898;2023-02-15T11:35:17;15.18;;;6.80;;
36653;SDS011;22650;49.350;20.898;2023-02-15T11:37:58;15.18;;;6.32;;
36653;SDS011;22650;49.350;20.898;2023-02-15T11:40:39;14.98;;;6.28;;
36653;SDS011;22650;49.350;20.898;2023-02-15T11:43:18;9.68;;;5.25;;
36653;SDS011;22650;49.350;20.898;2023-02-15T11:45:57;10.20;;;6.07;;
36653;SDS011;22650;49.350;20.898;2023-02-15T11:48:32;13.82;;;5.57;;
36653;SDS011;22650;49.350;20.898;2023-02-15T11:51:08;10.43;;;5.68;;
36653;SDS011;22650;49.350;20.898;2023-02-15T11:53:48;10.18;;;4.18;;
36653;SDS011;22650;49.350;20.898;2023-02-15T11:56:24;11.07;;;4.60;;
36653;SDS011;22650;49.350;20.898;2023-02-15T11:59:00;9.90;;;4.93;;
36653;SDS011;22650;49.350;20.898;2023-02-15T12:01:46;7.55;;;3.53;;
36653;SDS011;22650;49.350;20.898;2023-02-15T12:04:22;8.25;;;4.35;;
36653;SDS011;22650;49.350;20.898;2023-02-15T12:07:01;9.95;;;3.80;;
36653;SDS011;22650;49.350;20.898;2023-02-15T12:09:45;9.75;;;3.92;;
36653;SDS011;22650;49.350;20.898;2023-02-15T12:12:25;6.60;;;4.03;;
36653;SDS011;22650;49.350;20.898;2023-02-15T12:15:02;8.13;;;4.38;;
36653;SDS011;22650;49.350;20.898;2023-02-15T12:17:48;7.82;;;3.97;;
36653;SDS011;22650;49.350;20.898;2023-02-15T12:20:29;9.73;;;5.07;;
36653;SDS011;22650;49.350;20.898;2023-02-15T12:23:05;10.40;;;4.72;;
36653;SDS011;22650;49.350;20.898;2023-02-15T12:25:50;9.80;;;4.57;;
36653;SDS011;22650;49.350;20.898;2023-02-15T12:28:51;11.35;;;5.30;;
36653;SDS011;22650;49.350;20.898;2023-02-15T13:24:20;10.02;;;4.95;;
36653;SDS011;22650;49.350;20.898;2023-02-15T13:28:42;6.82;;;4.63;;
36653;SDS011;22650;49.350;20.898;2023-02-15T13:42:57;10.43;;;5.80;;
36653;SDS011;22650;49.350;20.898;2023-02-15T13:45:38;9.50;;;5.07;;
36653;SDS011;22650;49.350;20.898;2023-02-15T13:48:27;12.05;;;5.03;;
36653;SDS011;22650;49.350;20.898;2023-02-15T13:51:25;11.15;;;5.78;;
36653;SDS011;22650;49.350;20.898;2023-02-15T13:57:26;9.70;;;5.40;;
36653;SDS011;22650;49.350;20.898;2023-02-15T14:00:16;11.50;;;5.80;;
36653;SDS011;22650;49.350;20.898;2023-02-15T14:03:03;10.48;;;4.93;;
36653;SDS011;22650;49.350;20.898;2023-02-15T14:05:56;11.60;;;5.05;;
36653;SDS011;22650;49.350;20.898;2023-02-15T14:08:55;10.98;;;5.53;;
36653;SDS011;22650;49.350;20.898;2023-02-15T14:11:44;11.52;;;5.88;;
36653;SDS011;22650;49.350;20.898;2023-02-15T14:14:39;9.73;;;4.88;;
36653;SDS011;22650;49.350;20.898;2023-02-15T14:17:29;11.68;;;5.68;;
36653;SDS011;22650;49.350;20.898;2023-02-15T14:20:18;9.93;;;5.72;;
36653;SDS011;22650;49.350;20.898;2023-02-15T14:23:00;9.02;;;5.05;;
36653;SDS011;22650;49.350;20.898;2023-02-15T14:25:43;7.03;;;3.83;;
36653;SDS011;22650;49.350;20.898;2023-02-15T14:28:22;13.52;;;6.10;;
36653;SDS011;22650;49.350;20.898;2023-02-15T14:31:02;11.05;;;5.78;;
36653;SDS011;22650;49.350;20.898;2023-02-15T14:33:40;10.07;;;5.72;;
36653;SDS011;22650;49.350;20.898;2023-02-15T14:36:21;11.70;;;4.93;;
36653;SDS011;22650;49.350;20.898;2023-02-15T14:39:03;10.30;;;4.50;;
36653;SDS011;22650;49.350;20.898;2023-02-15T14:42:02;9.82;;;4.88;;
36653;SDS011;22650;49.350;20.898;2023-02-15T14:55:53;21.80;;;10.15;;
36653;SDS011;22650;49.350;20.898;2023-02-15T15:01:51;13.10;;;7.10;;
36653;SDS011;22650;49.350;20.898;2023-02-15T15:04:30;12.73;;;6.93;;
36653;SDS011;22650;49.350;20.898;2023-02-15T15:07:09;11.45;;;6.13;;
36653;SDS011;22650;49.350;20.898;2023-02-15T15:09:59;10.48;;;5.85;;
36653;SDS011;22650;49.350;20.898;2023-02-15T15:12:47;15.23;;;6.95;;
36653;SDS011;22650;49.350;20.898;2023-02-15T15:37:08;12.18;;;6.80;;
36653;SDS011;22650;49.350;20.898;2023-02-15T15:40:24;20.75;;;10.15;;
36653;SDS011;22650;49.350;20.898;2023-02-15T15:46:40;16.02;;;8.07;;
36653;SDS011;22650;49.350;20.898;2023-02-15T15:49:28;16.92;;;8.57;;
36653;SDS011;22650;49.350;20.898;2023-02-15T15:52:08;17.25;;;9.60;;
36653;SDS011;22650;49.350;20.898;2023-02-15T15:54:47;17.92;;;10.13;;
36653;SDS011;22650;49.350;20.898;2023-02-15T15:57:26;18.80;;;11.05;;
36653;SDS011;22650;49.350;20.898;2023-02-15T16:00:02;35.08;;;12.38;;
36653;SDS011;22650;49.350;20.898;2023-02-15T16:02:51;34.95;;;16.95;;
36653;SDS011;22650;49.350;20.898;2023-02-15T16:05:27;40.42;;;16.25;;
36653;SDS011;22650;49.350;20.898;2023-02-15T16:08:08;32.38;;;14.55;;
36653;SDS011;22650;49.350;20.898;2023-02-15T16:10:43;35.17;;;15.38;;
36653;SDS011;22650;49.350;20.898;2023-02-15T16:13:18;42.83;;;16.40;;
36653;SDS011;22650;49.350;20.898;2023-02-15T16:15:53;41.78;;;18.60;;
36653;SDS011;22650;49.350;20.898;2023-02-15T16:18:29;47.13;;;20.10;;
36653;SDS011;22650;49.350;20.898;2023-02-15T16:21:04;47.20;;;17.90;;
36653;SDS011;22650;49.350;20.898;2023-02-15T16:23:55;46.08;;;19.48;;
36653;SDS011;22650;49.350;20.898;2023-02-15T16:26:49;50.63;;;19.35;;
36653;SDS011;22650;49.350;20.898;2023-02-15T16:29:35;50.40;;;18.63;;
36653;SDS011;22650;49.350;20.898;2023-02-15T16:32:15;62.95;;;20.27;;
36653;SDS011;22650;49.350;20.898;2023-02-15T16:37:31;65.07;;;20.23;;
36653;SDS011;22650;49.350;20.898;2023-02-15T16:40:11;55.53;;;20.55;;
36653;SDS011;22650;49.350;20.898;2023-02-15T16:45:47;41.58;;;15.23;;
36653;SDS011;22650;49.350;20.898;2023-02-15T16:48:21;31.70;;;14.93;;
36653;SDS011;22650;49.350;20.898;2023-02-15T16:51:00;47.90;;;19.48;;
36653;SDS011;22650;49.350;20.898;2023-02-15T16:53:35;54.90;;;21.98;;
36653;SDS011;22650;49.350;20.898;2023-02-15T16:56:10;42.97;;;17.00;;
36653;SDS011;22650;49.350;20.898;2023-02-15T16:58:49;59.63;;;23.52;;
36653;SDS011;22650;49.350;20.898;2023-02-15T17:01:24;55.05;;;24.60;;
36653;SDS011;22650;49.350;20.898;2023-02-15T17:04:11;74.15;;;26.52;;
36653;SDS011;22650;49.350;20.898;2023-02-15T17:06:55;64.43;;;25.42;;
36653;SDS011;22650;49.350;20.898;2023-02-15T17:09:40;62.50;;;25.20;;
36653;SDS011;22650;49.350;20.898;2023-02-15T17:15:28;64.70;;;24.17;;
36653;SDS011;22650;49.350;20.898;2023-02-15T17:18:04;79.60;;;28.38;;
36653;SDS011;22650;49.350;20.898;2023-02-15T17:20:43;69.35;;;26.75;;
36653;SDS011;22650;49.350;20.898;2023-02-15T17:23:28;84.70;;;28.42;;
36653;SDS011;22650;49.350;20.898;2023-02-15T17:26:10;74.72;;;28.45;;
36653;SDS011;22650;49.350;20.898;2023-02-15T17:28:47;89.45;;;32.78;;
36653;SDS011;22650;49.350;20.898;2023-02-15T17:31:24;72.57;;;31.00;;
36653;SDS011;22650;49.350;20.898;2023-02-15T17:34:01;71.72;;;26.75;;
36653;SDS011;22650;49.350;20.898;2023-02-15T17:36:36;84.07;;;27.65;;